Time;durP1;ratioP1;P1;durP2;ratioP2;P2;SDS_P1;SDS_P2;PMS_P1;PMS_P2;Temp;Humidity;BMP_temperature;BMP_pressure;BME280_temperature;BME280_humidity;BME280_pressure;Samples;Min_cycle;Max_cycle;Signal;HPM_P1;HPM_P2
2021/07/05 00:00:54;;;;;;;16.77;6.18;;;;;;;17.51;60.47;99113.34;4941995;29;20110;-67
2021/07/05 00:03:21;;;;;;;14.57;6.00;;;;;;;17.46;60.76;99119.09;4942399;29;20640;-67
2021/07/05 00:05:47;;;;;;;14.38;6.10;;;;;;;17.52;60.54;99125.25;4942850;29;20048;-67
2021/07/05 00:08:13;;;;;;;17.33;6.55;;;;;;;17.55;59.95;99128.09;4941931;29;20082;-67
2021/07/05 00:10:40;;;;;;;16.33;6.13;;;;;;;17.62;60.14;99130.31;4941081;29;20820;-67
2021/07/05 00:13:09;;;;;;;15.50;5.93;;;;;;;17.64;60.19;99125.28;4942809;29;20512;-68
2021/07/05 00:15:36;;;;;;;16.33;7.15;;;;;;;17.60;59.81;99126.31;4942450;29;20058;-66
2021/07/05 00:18:03;;;;;;;17.00;6.20;;;;;;;17.60;59.72;99120.78;4941166;28;20049;-66
2021/07/05 00:20:35;;;;;;;17.27;6.20;;;;;;;17.47;60.52;99123.47;4941987;29;20059;-67
2021/07/05 00:23:01;;;;;;;16.23;5.97;;;;;;;17.48;60.41;99124.28;4942229;29;20055;-68
2021/07/05 00:25:27;;;;;;;14.60;6.40;;;;;;;17.49;60.46;99125.91;4940908;29;20058;-66
2021/07/05 00:27:58;;;;;;;18.50;5.53;;;;;;;17.47;60.39;99117.13;4942280;29;20102;-67
2021/07/05 00:30:26;;;;;;;14.20;5.78;;;;;;;17.45;60.13;99125.78;4941604;29;20052;-66
2021/07/05 00:32:53;;;;;;;14.43;5.82;;;;;;;17.43;60.07;99126.09;4941131;29;20056;-67
2021/07/05 00:35:20;;;;;;;18.15;6.03;;;;;;;17.34;59.98;99103.28;4924066;29;20043;-66
2021/07/05 00:37:47;;;;;;;16.90;6.10;;;;;;;17.44;60.39;99124.16;4941971;29;20051;-66
2021/07/05 00:40:17;;;;;;;16.13;5.88;;;;;;;17.35;60.06;99109.59;4942156;29;20051;-67
2021/07/05 00:42:43;;;;;;;18.40;6.60;;;;;;;17.35;60.24;99118.72;4942084;29;20121;-66
2021/07/05 00:45:13;;;;;;;17.38;6.63;;;;;;;17.31;60.43;99125.25;4941343;29;20082;-66
2021/07/05 00:47:39;;;;;;;15.80;6.00;;;;;;;17.20;60.62;99120.09;4942093;29;20500;-66
2021/07/05 00:50:11;;;;;;;17.20;6.07;;;;;;;17.18;60.28;99122.41;4925341;29;20142;-66
2021/07/05 00:52:38;;;;;;;15.40;5.65;;;;;;;17.09;60.72;99121.63;4941645;28;20044;-66
2021/07/05 00:55:07;;;;;;;22.13;6.03;;;;;;;17.08;60.67;99123.59;4946175;29;20055;-66
2021/07/05 00:57:33;;;;;;;16.48;5.07;;;;;;;17.08;60.79;99123.59;4945609;28;20063;-66
2021/07/05 01:00:00;;;;;;;13.98;5.93;;;;;;;16.89;61.41;99120.47;4946209;29;20054;-66
2021/07/05 01:02:28;;;;;;;14.48;6.50;;;;;;;16.90;61.01;99128.38;4944236;29;20476;-66
2021/07/05 01:04:56;;;;;;;22.63;6.97;;;;;;;16.92;60.55;99134.38;4945646;29;20067;-66
2021/07/05 01:07:23;;;;;;;15.00;5.97;;;;;;;16.86;60.37;99128.25;4945193;29;20065;-66
2021/07/05 01:09:53;;;;;;;15.70;6.13;;;;;;;16.94;60.49;99134.88;4945900;29;20062;-66
2021/07/05 01:12:19;;;;;;;14.23;5.68;;;;;;;16.89;60.22;99135.06;4927371;29;20045;-66
2021/07/05 01:14:48;;;;;;;15.13;5.78;;;;;;;16.83;60.67;99136.41;4945886;29;20051;-66
2021/07/05 01:17:17;;;;;;;16.98;6.32;;;;;;;16.79;60.41;99135.44;4945356;28;20053;-66
2021/07/05 01:19:46;;;;;;;18.23;6.10;;;;;;;16.72;60.66;99139.53;4945100;29;20043;-64
2021/07/05 01:22:17;;;;;;;15.85;6.32;;;;;;;16.70;60.51;99133.53;4945383;28;20051;-66
2021/07/05 01:24:48;;;;;;;19.90;6.00;;;;;;;16.67;60.62;99131.44;4945632;29;20047;-66
2021/07/05 01:27:16;;;;;;;18.38;5.70;;;;;;;16.59;60.43;99118.47;4944547;28;20303;-66
2021/07/05 01:29:42;;;;;;;15.63;5.40;;;;;;;16.68;60.66;99129.47;4944176;29;20059;-64
2021/07/05 01:32:11;;;;;;;16.73;5.75;;;;;;;16.65;60.21;99135.66;4945674;28;20055;-67
2021/07/05 01:34:38;;;;;;;18.67;5.72;;;;;;;16.67;60.49;99139.72;4944393;29;20291;-66
2021/07/05 01:37:05;;;;;;;12.35;5.68;;;;;;;16.65;60.18;99139.25;4944704;29;20062;-66
2021/07/05 01:39:33;;;;;;;13.00;5.20;;;;;;;16.68;59.67;99143.28;4943627;29;20067;-66
2021/07/05 01:42:04;;;;;;;13.80;5.32;;;;;;;16.71;59.53;99135.16;4944362;28;20051;-66
2021/07/05 01:44:31;;;;;;;17.27;6.03;;;;;;;16.79;58.72;99135.44;4943934;29;20129;-66
2021/07/05 01:46:57;;;;;;;12.50;4.80;;;;;;;16.82;58.51;99146.63;4943811;29;20048;-64
2021/07/05 01:49:24;;;;;;;12.97;5.20;;;;;;;16.80;58.52;99151.66;4944420;29;20483;-67
2021/07/05 01:51:50;;;;;;;13.82;5.15;;;;;;;16.70;58.17;99130.78;4944657;29;20062;-67
2021/07/05 01:54:16;;;;;;;12.65;4.97;;;;;;;16.76;57.83;99153.47;4944668;29;20135;-67
2021/07/05 01:56:45;;;;;;;18.63;5.63;;;;;;;16.70;58.23;99150.09;4944255;29;20500;-67
2021/07/05 01:59:12;;;;;;;13.25;5.97;;;;;;;16.63;58.05;99147.06;4945501;29;20051;-67
2021/07/05 02:01:38;;;;;;;15.95;5.82;;;;;;;16.61;58.23;99145.75;4945140;29;20130;-67
2021/07/05 02:04:05;;;;;;;13.45;5.30;;;;;;;16.58;58.21;99148.03;4943756;28;20113;-67
2021/07/05 02:06:32;;;;;;;18.13;5.55;;;;;;;16.61;58.53;99152.06;4943753;29;20122;-67
2021/07/05 02:09:02;;;;;;;15.85;5.38;;;;;;;16.62;57.68;99145.41;4944911;29;20058;-67
2021/07/05 02:11:31;;;;;;;16.77;5.65;;;;;;;16.69;58.00;99167.78;4944844;29;20413;-67
2021/07/05 02:14:02;;;;;;;19.20;5.88;;;;;;;16.64;57.44;99154.19;4944038;29;20043;-68
2021/07/05 02:16:31;;;;;;;13.50;5.55;;;;;;;16.65;57.85;99154.97;4944312;28;20067;-67
2021/07/05 02:18:57;;;;;;;15.00;5.95;;;;;;;16.65;57.90;99160.50;4944754;29;20048;-67
2021/07/05 02:21:23;;;;;;;14.55;5.70;;;;;;;16.66;57.85;99153.84;4944735;29;20066;-66
2021/07/05 02:23:49;;;;;;;18.00;5.53;;;;;;;16.63;58.25;99163.59;4925781;29;20147;-65
2021/07/05 02:26:15;;;;;;;15.00;5.32;;;;;;;16.63;57.97;99160.03;4944027;28;20067;-66
2021/07/05 02:28:44;;;;;;;16.15;5.47;;;;;;;16.56;58.33;99160.53;4944192;29;20088;-67
2021/07/05 02:31:11;;;;;;;14.52;5.20;;;;;;;16.61;58.54;99170.59;4944149;29;20055;-66
2021/07/05 02:33:38;;;;;;;20.25;5.93;;;;;;;16.74;58.05;99158.53;4942923;29;20059;-67
2021/07/05 02:36:06;;;;;;;15.35;5.63;;;;;;;16.96;57.91;99174.00;4942748;29;20051;-67
2021/07/05 02:38:37;;;;;;;17.52;5.63;;;;;;;17.00;58.11;99176.91;4944071;29;20054;-65
2021/07/05 02:41:07;;;;;;;15.73;5.15;;;;;;;17.00;57.74;99179.69;4944068;28;20074;-66
2021/07/05 02:43:33;;;;;;;12.75;5.25;;;;;;;17.04;57.63;99177.06;4942929;29;20051;-66
2021/07/05 02:46:03;;;;;;;20.98;5.70;;;;;;;17.11;57.00;99178.16;4926753;28;20058;-66
2021/07/05 02:48:32;;;;;;;15.13;5.32;;;;;;;17.26;57.14;99178.72;4944097;29;20532;-67
2021/07/05 02:51:00;;;;;;;17.73;5.68;;;;;;;17.15;57.16;99184.63;4942417;29;20055;-66
2021/07/05 02:53:30;;;;;;;12.52;5.03;;;;;;;17.15;57.18;99186.59;4943297;29;20047;-66
2021/07/05 02:56:00;;;;;;;12.75;5.30;;;;;;;17.24;57.07;99178.25;4910122;29;20052;-67
2021/07/05 02:58:26;;;;;;;15.35;5.45;;;;;;;17.27;56.57;99180.34;4944006;29;20089;-67
2021/07/05 03:00:55;;;;;;;17.33;6.00;;;;;;;17.25;56.75;99186.22;4942199;29;20044;-65
2021/07/05 03:03:21;;;;;;;15.77;5.32;;;;;;;17.32;56.98;99184.88;4942715;29;20047;-67
2021/07/05 03:05:52;;;;;;;12.00;4.80;;;;;;;17.38;57.03;99189.88;4943450;29;20076;-66
2021/07/05 03:08:19;;;;;;;22.23;5.53;;;;;;;17.20;57.08;99191.13;4943325;28;20059;-67
2021/07/05 03:10:48;;;;;;;13.60;5.57;;;;;;;17.15;57.21;99192.91;4941131;29;20554;-67
2021/07/05 03:13:18;;;;;;;14.32;5.20;;;;;;;17.22;57.33;99186.06;4943412;29;20044;-66
2021/07/05 03:15:46;;;;;;;12.88;5.20;;;;;;;17.28;57.00;99185.53;4942637;29;20142;-67
2021/07/05 03:18:12;;;;;;;15.32;5.20;;;;;;;17.29;57.22;99189.91;4942609;28;20054;-65
2021/07/05 03:20:41;;;;;;;16.95;5.78;;;;;;;17.29;56.87;99181.63;4941705;29;20070;-66
2021/07/05 03:23:13;;;;;;;15.05;5.15;;;;;;;17.35;56.72;99193.31;4943180;28;20118;-67
2021/07/05 03:25:43;;;;;;;15.65;5.45;;;;;;;17.36;56.95;99188.56;4943149;29;20157;-68
2021/07/05 03:28:12;;;;;;;16.95;5.63;;;;;;;17.40;56.72;99187.56;4941898;28;20110;-67
2021/07/05 03:30:43;;;;;;;19.15;5.07;;;;;;;17.38;56.74;99194.56;4942937;29;20063;-67
2021/07/05 03:33:12;;;;;;;17.30;4.90;;;;;;;17.31;56.59;99183.25;4926022;29;20556;-67
2021/07/05 03:35:42;;;;;;;15.57;5.25;;;;;;;17.31;56.21;99161.16;4943008;29;20066;-67
2021/07/05 03:38:09;;;;;;;16.13;5.35;;;;;;;17.46;55.85;99193.72;4942055;29;20058;-67
2021/07/05 03:40:38;;;;;;;15.35;4.93;;;;;;;17.39;55.80;99185.94;4942080;29;20048;-66
2021/07/05 03:43:07;;;;;;;11.30;4.85;;;;;;;17.50;55.66;99188.31;4942638;29;20055;-67
2021/07/05 03:45:36;;;;;;;11.48;5.15;;;;;;;17.48;56.13;99190.59;4942088;29;20528;-66
2021/07/05 03:48:03;;;;;;;16.02;5.00;;;;;;;17.48;55.96;99187.81;4941923;28;20047;-67
2021/07/05 03:50:33;;;;;;;24.23;5.22;;;;;;;17.56;55.73;99198.03;4942714;29;20537;-67
2021/07/05 03:52:59;;;;;;;13.60;4.97;;;;;;;17.66;56.18;99205.91;4909359;29;20418;-67
2021/07/05 03:55:28;;;;;;;13.98;4.78;;;;;;;17.72;56.09;99204.56;4941720;29;20148;-67
2021/07/05 03:57:57;;;;;;;15.30;5.43;;;;;;;17.80;55.77;99213.94;4941248;28;20056;-67
2021/07/05 04:00:28;;;;;;;12.63;4.47;;;;;;;17.86;55.64;99211.78;4942344;29;20055;-67
2021/07/05 04:02:54;;;;;;;16.88;5.07;;;;;;;17.96;55.48;99216.91;4941964;29;20051;-67
2021/07/05 04:05:26;;;;;;;11.07;4.70;;;;;;;17.88;55.22;99203.94;4941448;29;20082;-68
2021/07/05 04:07:56;;;;;;;13.38;5.13;;;;;;;17.84;55.18;99211.31;4924870;29;20146;-67
2021/07/05 04:10:23;;;;;;;14.77;4.40;;;;;;;17.83;55.14;99210.47;4942570;29;20070;-67
2021/07/05 04:12:49;;;;;;;20.38;5.00;;;;;;;17.92;54.88;99213.19;4941971;28;20050;-65
2021/07/05 04:15:20;;;;;;;22.20;5.18;;;;;;;17.97;55.07;99212.16;4941669;29;20051;-67
2021/07/05 04:17:46;;;;;;;16.08;4.65;;;;;;;18.00;54.45;99214.25;4924904;29;20047;-67
2021/07/05 04:20:18;;;;;;;19.15;4.53;;;;;;;17.95;54.76;99203.41;4925203;29;20099;-67
2021/07/05 04:22:45;;;;;;;17.00;5.32;;;;;;;18.08;54.20;99216.16;4922743;29;20081;-65
2021/07/05 04:25:13;;;;;;;13.02;4.35;;;;;;;18.07;54.32;99206.25;4910080;29;20047;-67
2021/07/05 04:27:43;;;;;;;12.95;4.38;;;;;;;18.19;53.93;99213.78;4941378;28;20062;-67
2021/07/05 04:30:14;;;;;;;15.85;4.22;;;;;;;18.20;53.70;99206.31;4942078;29;20547;-67
2021/07/05 04:32:42;;;;;;;14.45;4.47;;;;;;;18.23;53.42;99192.56;4941672;29;20063;-67
2021/07/05 04:35:13;;;;;;;12.20;4.32;;;;;;;18.36;53.34;99207.28;4942175;29;20058;-68
2021/07/05 04:37:40;;;;;;;13.82;4.28;;;;;;;18.45;53.39;99209.13;4924991;29;20417;-66
2021/07/05 04:40:09;;;;;;;15.68;4.10;;;;;;;18.49;53.79;99205.34;4924826;29;20762;-65
2021/07/05 04:42:38;;;;;;;15.82;4.75;;;;;;;18.60;53.03;99210.44;4941405;29;20048;-66
2021/07/05 04:45:07;;;;;;;13.35;4.20;;;;;;;18.61;52.97;99209.28;4941506;29;20129;-67
2021/07/05 04:47:33;;;;;;;12.00;4.05;;;;;;;18.62;52.38;99210.91;4941915;29;20062;-67
2021/07/05 04:50:01;;;;;;;15.90;4.20;;;;;;;18.64;52.14;99203.06;4940666;29;20055;-66
2021/07/05 04:52:27;;;;;;;14.88;4.45;;;;;;;18.75;52.20;99209.78;4941573;28;20069;-67
2021/07/05 04:54:54;;;;;;;14.88;4.60;;;;;;;18.77;52.23;99199.16;4941099;29;20465;-67
2021/07/05 04:57:23;;;;;;;15.38;4.70;;;;;;;18.87;52.44;99219.22;4924064;29;20051;-67
2021/07/05 04:59:49;;;;;;;13.43;3.92;;;;;;;18.94;52.37;99211.16;4941763;29;20083;-68
2021/07/05 05:02:15;;;;;;;15.70;4.22;;;;;;;19.07;52.00;99218.34;4942107;28;20165;-67
2021/07/05 05:04:43;;;;;;;13.77;4.10;;;;;;;19.17;52.26;99216.25;4941247;29;20048;-67
2021/07/05 05:07:11;;;;;;;17.02;4.25;;;;;;;19.21;51.25;99211.66;4941762;28;20047;-67
2021/07/05 05:09:39;;;;;;;;;;;;;;;19.30;50.90;99211.53;4942085;29;20059;-67
2021/07/05 05:12:06;;;;;;;16.48;4.13;;;;;;;19.34;50.71;99215.22;4941623;28;19969;-66
2021/07/05 05:14:32;;;;;;;27.92;3.90;;;;;;;19.34;50.24;99210.47;4940334;29;20056;-66
2021/07/05 05:17:01;;;;;;;17.52;3.88;;;;;;;19.36;50.57;99207.34;4942078;28;20055;-66
2021/07/05 05:19:30;;;;;;;14.20;3.72;;;;;;;19.44;50.49;99208.38;4941412;29;20059;-66
2021/07/05 05:21:56;;;;;;;15.77;3.88;;;;;;;19.48;49.62;99200.97;4940541;28;20048;-66
2021/07/05 05:24:26;;;;;;;15.50;5.45;;;;;;;19.51;49.64;99212.19;4941465;29;20051;-68
2021/07/05 05:26:55;;;;;;;19.15;4.32;;;;;;;19.54;49.03;99203.16;4941529;28;20075;-68
2021/07/05 05:29:25;;;;;;;17.02;4.45;;;;;;;19.63;49.28;99216.88;4941738;29;20138;-67
2021/07/05 05:31:51;;;;;;;20.77;4.00;;;;;;;19.76;49.24;99209.34;4939859;28;20078;-65
2021/07/05 05:34:17;;;;;;;20.13;5.07;;;;;;;19.80;48.61;99210.25;4940711;29;20055;-66
2021/07/05 05:36:43;;;;;;;13.30;4.78;;;;;;;19.81;48.22;99211.88;4941993;28;20046;-67
2021/07/05 05:39:09;;;;;;;16.70;5.65;;;;;;;19.85;48.12;99206.44;4942980;28;20048;-66
2021/07/05 05:41:37;;;;;;;12.50;4.03;;;;;;;19.88;47.22;99207.69;4944617;29;20058;-67
2021/07/05 05:44:04;;;;;;;16.13;3.85;;;;;;;19.95;47.03;99213.47;4944857;29;20055;-67
2021/07/05 05:46:32;;;;;;;15.93;3.67;;;;;;;20.00;46.80;99204.09;4944969;28;20078;-66
2021/07/05 05:48:59;;;;;;;20.58;4.28;;;;;;;20.04;46.74;99210.56;4944613;29;20055;-65
2021/07/05 05:51:31;;;;;;;16.15;4.10;;;;;;;20.13;46.81;99208.41;4943261;28;20201;-67
2021/07/05 05:53:57;;;;;;;18.42;3.80;;;;;;;20.17;46.34;99208.53;4944558;29;20051;-67
2021/07/05 05:56:23;;;;;;;14.10;3.72;;;;;;;20.25;46.02;99216.69;4945080;29;20055;-67
2021/07/05 05:58:50;;;;;;;15.88;3.83;;;;;;;20.26;46.83;99211.94;4944167;29;20516;-66
2021/07/05 06:01:16;;;;;;;10.77;3.38;;;;;;;20.19;45.88;99190.38;4943667;29;20083;-67
2021/07/05 06:03:43;;;;;;;13.45;3.42;;;;;;;20.40;45.98;99217.06;4943906;29;20095;-65
2021/07/05 06:06:09;;;;;;;10.25;3.55;;;;;;;20.45;45.69;99218.78;4927372;29;20588;-66
2021/07/05 06:08:35;;;;;;;12.60;3.75;;;;;;;20.53;45.20;99207.50;4945068;29;20146;-66
2021/07/05 06:11:01;;;;;;;13.65;3.83;;;;;;;20.50;44.63;99210.19;4944600;29;20146;-66
2021/07/05 06:13:27;;;;;;;16.52;4.57;;;;;;;20.50;44.59;99202.69;4943806;29;20073;-67
2021/07/05 06:15:54;;;;;;;11.98;3.35;;;;;;;20.55;44.31;99210.72;4944789;29;20528;-67
2021/07/05 06:18:20;;;;;;;14.60;3.25;;;;;;;20.66;44.84;99202.69;4927345;29;20051;-66
2021/07/05 06:20:47;;;;;;;13.50;3.55;;;;;;;20.74;43.74;99202.88;4942435;29;20110;-67
2021/07/05 06:23:20;;;;;;;;;;;;;;;20.77;43.88;99205.75;4926372;29;20535;-66
2021/07/05 06:25:46;;;;;;;15.60;3.90;;;;;;;20.82;44.16;99210.22;4944082;29;19927;-66
2021/07/05 06:28:14;;;;;;;11.20;4.10;;;;;;;20.79;43.89;99208.97;4943964;28;20465;-66
2021/07/05 06:30:40;;;;;;;17.13;3.63;;;;;;;20.85;44.39;99209.53;4944062;29;20192;-66
2021/07/05 06:33:11;;;;;;;8.93;3.40;;;;;;;20.90;43.44;99205.66;4943721;28;20536;-67
2021/07/05 06:35:37;;;;;;;17.70;4.00;;;;;;;20.97;44.52;99219.75;4926088;29;20067;-68
2021/07/05 06:38:03;;;;;;;15.60;3.60;;;;;;;21.06;44.46;99214.00;4943883;28;20043;-68
2021/07/05 06:40:32;;;;;;;17.45;3.80;;;;;;;21.15;42.92;99211.84;4943543;29;20047;-68
2021/07/05 06:42:59;;;;;;;10.20;3.80;;;;;;;21.20;42.67;99211.56;4942150;29;20077;-67
2021/07/05 06:45:25;;;;;;;9.73;3.20;;;;;;;21.17;42.91;99212.28;4941327;29;20102;-67
2021/07/05 06:47:51;;;;;;;16.10;3.63;;;;;;;21.27;42.94;99219.25;4943078;29;20047;-67
2021/07/05 06:50:19;;;;;;;14.40;3.58;;;;;;;21.45;43.34;99225.22;4943489;28;20497;-67
2021/07/05 06:52:47;;;;;;;14.05;3.80;;;;;;;21.45;44.01;99208.53;4943329;29;20059;-67
2021/07/05 06:55:14;;;;;;;11.73;4.07;;;;;;;21.48;44.30;99223.69;4940808;29;20110;-66
2021/07/05 06:57:41;;;;;;;11.90;3.90;;;;;;;21.56;43.28;99224.66;4942233;28;20110;-68
2021/07/05 07:00:09;;;;;;;14.10;4.18;;;;;;;21.63;43.69;99217.28;4942749;29;20051;-67
2021/07/05 07:02:37;;;;;;;14.15;4.28;;;;;;;21.72;43.85;99219.88;4942891;29;20487;-66
2021/07/05 07:05:04;;;;;;;14.27;3.58;;;;;;;21.79;43.63;99210.88;4941694;29;20055;-68
2021/07/05 07:07:31;;;;;;;;;;;;;;;21.79;43.40;99220.03;4934551;29;20043;-67
2021/07/05 07:09:57;;;;;;;26.48;4.63;;;;;;;21.85;43.71;99208.63;4943523;29;20029;-67
2021/07/05 07:12:23;;;;;;;15.23;4.25;;;;;;;21.91;44.20;99219.09;4941040;29;20043;-67
2021/07/05 07:14:49;;;;;;;20.52;4.40;;;;;;;21.95;44.90;99214.41;4942883;29;20059;-68
2021/07/05 07:17:24;;;;;;;15.77;4.75;;;;;;;22.04;44.79;99216.16;4943806;29;20090;-67
2021/07/05 07:19:50;;;;;;;15.88;4.10;;;;;;;22.13;45.53;99208.38;4943381;29;20044;-67
2021/07/05 07:22:16;;;;;;;17.88;4.25;;;;;;;22.19;44.94;99209.72;4941264;28;20050;-66
2021/07/05 07:24:47;;;;;;;22.83;5.03;;;;;;;22.21;44.45;99210.13;4943158;29;20070;-67
2021/07/05 07:27:14;;;;;;;18.60;4.35;;;;;;;22.27;44.35;99205.09;4941925;28;20149;-68
2021/07/05 07:29:40;;;;;;;17.02;4.00;;;;;;;22.31;44.19;99210.69;4941788;29;20054;-66
2021/07/05 07:32:06;;;;;;;25.15;4.90;;;;;;;22.38;44.14;99211.63;4942181;29;20048;-67
2021/07/05 07:34:33;;;;;;;16.00;4.53;;;;;;;22.43;44.47;99216.09;4941954;29;20050;-67
2021/07/05 07:37:03;;;;;;;13.10;3.85;;;;;;;22.39;44.36;99207.66;4942651;29;20052;-67
2021/07/05 07:39:55;;;;;;;13.45;4.05;;;;;;;22.42;44.34;99214.50;4924997;29;20043;-66
2021/07/05 07:42:22;;;;;;;18.88;4.35;;;;;;;22.42;43.85;99225.63;4942959;29;20047;-68
2021/07/05 07:44:48;;;;;;;12.20;4.13;;;;;;;22.17;42.95;99227.94;4941688;29;20208;-68
2021/07/05 07:47:18;;;;;;;9.77;3.95;;;;;;;22.27;43.55;99219.00;4942382;29;20070;-68
2021/07/05 07:49:44;;;;;;;9.80;3.95;;;;;;;22.10;42.93;99226.63;4940832;29;20043;-68
2021/07/05 07:52:10;;;;;;;11.32;5.20;;;;;;;21.91;42.86;99221.06;4942247;28;20527;-68
2021/07/05 07:54:36;;;;;;;14.27;4.05;;;;;;;22.14;42.44;99229.47;4925240;29;20055;-67
2021/07/05 07:57:03;;;;;;;16.20;3.90;;;;;;;22.20;41.95;99216.06;4942008;29;20055;-67
2021/07/05 07:59:33;;;;;;;14.15;3.95;;;;;;;22.07;42.39;99227.34;4941606;29;20413;-68
2021/07/05 08:02:03;;;;;;;12.90;4.10;;;;;;;22.09;42.61;99218.63;4924611;29;20051;-68
2021/07/05 08:04:29;;;;;;;14.85;5.03;;;;;;;22.35;42.41;99212.38;4942362;29;20110;-67
2021/07/05 08:06:55;;;;;;;9.75;3.90;;;;;;;22.41;42.09;99214.88;4941038;28;20047;-68
2021/07/05 08:09:22;;;;;;;15.80;4.05;;;;;;;22.50;41.56;99216.28;4941833;29;20527;-67
2021/07/05 08:11:48;;;;;;;14.07;5.03;;;;;;;22.58;42.65;99217.22;4941748;28;20047;-67
2021/07/05 08:14:14;;;;;;;16.55;4.22;;;;;;;22.70;42.68;99224.56;4942054;29;20043;-67
2021/07/05 08:16:42;;;;;;;21.00;6.53;;;;;;;22.85;43.26;99220.03;4941262;29;20047;-68
2021/07/05 08:19:11;;;;;;;16.55;4.25;;;;;;;22.74;41.35;99207.94;4942151;29;20058;-68
2021/07/05 08:21:41;;;;;;;14.18;4.10;;;;;;;22.58;42.25;99219.19;4941930;28;20319;-66
2021/07/05 08:24:10;;;;;;;11.95;3.83;;;;;;;22.71;40.77;99223.41;4942309;29;20055;-68
2021/07/05 08:26:39;;;;;;;12.60;3.92;;;;;;;22.85;38.53;99220.03;4941512;29;20110;-70
2021/07/05 08:29:07;;;;;;;10.65;3.75;;;;;;;22.96;38.86;99214.66;4941980;29;20066;-67
2021/07/05 08:31:33;;;;;;;9.05;3.42;;;;;;;23.14;38.83;99216.94;4941435;29;20048;-67
2021/07/05 08:34:02;;;;;;;10.73;4.20;;;;;;;23.14;39.62;99214.13;4941686;29;20047;-67
2021/07/05 08:36:28;;;;;;;13.35;3.97;;;;;;;22.89;40.75;99228.47;4941144;29;20055;-67
2021/07/05 08:38:55;;;;;;;12.95;4.72;;;;;;;22.93;41.44;99221.78;4940815;29;20047;-68
2021/07/05 08:41:24;;;;;;;15.48;4.43;;;;;;;23.08;42.29;99217.22;4941886;29;20049;-68
2021/07/05 08:43:51;;;;;;;8.60;3.90;;;;;;;23.06;40.19;99218.81;4941540;29;20110;-68
2021/07/05 08:46:20;;;;;;;;;;;;;;;22.87;40.09;99211.31;4941711;28;20056;-67
2021/07/05 08:48:47;;;;;;;14.07;4.25;;;;;;;22.84;40.16;99212.06;4940812;29;19930;-67
2021/07/05 08:51:18;;;;;;;11.93;4.22;;;;;;;22.98;40.99;99208.69;4941337;29;20182;-68
2021/07/05 08:53:46;;;;;;;16.50;4.60;;;;;;;23.04;41.36;99207.22;4940700;29;20054;-67
2021/07/05 08:56:11;;;;;;;;;;;;;;;23.21;41.30;99200.28;4941200;28;20121;-66
2021/07/05 08:58:39;;;;;;;11.73;4.57;;;;;;;23.44;41.22;99210.63;4941803;29;20406;-68
2021/07/05 09:01:07;;;;;;;12.77;5.10;;;;;;;23.54;40.62;99201.59;4939836;29;20122;-67
2021/07/05 09:03:34;;;;;;;12.82;4.65;;;;;;;23.79;41.09;99201.13;4940901;29;20059;-66
2021/07/05 09:06:13;;;;;;;;;;;;;;;24.00;41.75;99202.56;4908969;29;20051;-67
2021/07/05 09:08:42;;;;;;;10.63;4.40;;;;;;;23.94;40.00;99197.31;4941666;29;19926;-68
2021/07/05 09:11:10;;;;;;;14.75;4.43;;;;;;;23.79;40.13;99201.13;4939841;28;20052;-68
2021/07/05 09:13:49;;;;;;;13.70;4.82;;;;;;;23.94;40.21;99205.69;4941047;28;20058;-68
2021/07/05 09:16:30;;;;;;;29.60;9.93;;;;;;;24.11;41.03;99200.72;4945361;29;20047;-67
2021/07/05 09:18:57;;;;;;;17.05;4.80;;;;;;;24.18;41.07;99206.38;4943518;29;20090;-66
2021/07/05 09:21:25;;;;;;;14.68;4.63;;;;;;;24.31;40.81;99206.94;4942520;28;20095;-68
2021/07/05 09:23:57;;;;;;;12.80;4.70;;;;;;;24.05;40.54;99205.06;4944073;29;20060;-67
2021/07/05 09:26:27;;;;;;;16.75;4.80;;;;;;;24.28;40.49;99206.91;4943856;28;20051;-67
2021/07/05 09:28:53;;;;;;;14.43;4.63;;;;;;;24.59;39.75;99202.81;4942962;29;20043;-67
2021/07/05 09:31:41;;;;;;;15.95;5.88;;;;;;;24.78;39.53;99204.59;4943774;28;20075;-67
2021/07/05 09:34:15;;;;;;;16.90;5.20;;;;;;;24.85;40.13;99206.66;4944137;29;20047;-68
2021/07/05 09:36:45;;;;;;;14.50;4.82;;;;;;;24.60;40.37;99201.63;4943349;29;20428;-67
2021/07/05 09:39:18;;;;;;;19.20;5.38;;;;;;;24.30;41.02;99207.31;4933581;29;20139;-67
2021/07/05 09:41:50;;;;;;;15.48;4.60;;;;;;;24.15;40.88;99209.16;4944665;28;20051;-68
2021/07/05 09:44:19;;;;;;;12.57;4.90;;;;;;;24.11;40.92;99208.28;4927764;29;20529;-67
2021/07/05 09:46:48;;;;;;;16.58;4.50;;;;;;;24.07;40.78;99216.66;4942003;29;20497;-66
2021/07/05 09:49:21;;;;;;;13.10;4.82;;;;;;;24.06;40.54;99207.44;4944798;29;20058;-67
2021/07/05 09:52:04;;;;;;;9.85;3.88;;;;;;;24.19;40.49;99199.63;4944639;29;20103;-67
2021/07/05 09:54:34;;;;;;;15.30;4.60;;;;;;;24.25;39.80;99199.28;4944479;29;20079;-67
2021/07/05 09:57:00;;;;;;;10.70;4.20;;;;;;;24.21;39.41;99185.28;4944636;29;20142;-67
2021/07/05 09:59:30;;;;;;;9.25;4.20;;;;;;;24.39;39.95;99196.66;4944656;29;20118;-68
2021/07/05 10:01:57;;;;;;;13.35;4.68;;;;;;;24.33;39.72;99189.78;4944246;28;20044;-68
2021/07/05 10:04:31;;;;;;;13.57;4.53;;;;;;;24.34;40.01;99199.75;4943066;29;20067;-67
2021/07/05 10:07:02;;;;;;;13.80;4.80;;;;;;;24.29;40.00;99191.75;4944031;28;20114;-68
2021/07/05 10:09:36;;;;;;;13.73;4.65;;;;;;;23.93;39.37;99192.09;4927478;29;20054;-68
2021/07/05 10:12:23;;;;;;;13.68;5.18;;;;;;;23.64;40.20;99198.16;4943000;29;20044;-69
2021/07/05 10:15:03;;;;;;;11.75;4.20;;;;;;;23.63;39.69;99198.50;4941894;29;20175;-68
2021/07/05 10:17:34;;;;;;;12.38;4.40;;;;;;;23.79;39.34;99198.34;4944553;29;20051;-68
2021/07/05 10:20:03;;;;;;;16.77;4.90;;;;;;;24.07;39.08;99194.31;4944325;29;20533;-70
2021/07/05 10:22:29;;;;;;;13.73;4.35;;;;;;;24.35;38.46;99201.38;4943215;29;20187;-67
2021/07/05 10:25:00;;;;;;;16.85;4.40;;;;;;;24.63;38.29;99188.88;4943458;29;20142;-68
2021/07/05 10:27:29;;;;;;;19.45;4.40;;;;;;;24.69;39.11;99197.72;4944031;28;20489;-68
2021/07/05 10:29:56;;;;;;;16.65;4.20;;;;;;;24.71;38.75;99201.72;4944304;29;20103;-67
2021/07/05 10:32:21;;;;;;;;;;;;;;;24.59;38.96;99193.63;4943216;28;20078;-67
2021/07/05 10:34:53;;;;;;;15.73;5.00;;;;;;;24.03;39.09;99199.84;4944329;29;20418;-68
2021/07/05 10:37:36;;;;;;;14.43;4.05;;;;;;;23.87;39.31;99202.00;4943265;29;20058;-68
2021/07/05 10:40:10;;;;;;;9.88;4.63;;;;;;;23.83;39.41;99201.19;4943870;29;20055;-68
2021/07/05 10:42:38;;;;;;;11.35;4.50;;;;;;;23.72;39.53;99189.84;4942379;28;20055;-68
2021/07/05 10:45:08;;;;;;;13.55;4.47;;;;;;;23.68;39.04;99202.97;4943193;29;20055;-68
2021/07/05 10:47:53;;;;;;;15.45;4.65;;;;;;;23.69;39.60;99208.19;4943724;28;20054;-67
2021/07/05 10:50:53;;;;;;;12.13;4.90;;;;;;;23.98;39.69;99205.75;4942418;29;20044;-67
2021/07/05 10:53:53;;;;;;;11.45;4.70;;;;;;;24.26;38.78;99203.69;4866155;29;20049;-67
2021/07/05 10:56:29;;;;;;;14.63;6.30;;;;;;;24.42;38.83;99201.47;4865926;29;20065;-68
2021/07/05 10:58:57;;;;;;;20.37;3.90;;;;;;;24.66;38.33;99209.66;4922011;29;20218;-66
2021/07/05 11:01:37;;;;;;;12.50;4.28;;;;;;;24.68;37.58;99210.06;4942867;28;20088;-67
2021/07/05 11:04:17;;;;;;;12.80;4.13;;;;;;;24.61;36.99;99205.22;4943147;29;20064;-68
2021/07/05 11:06:48;;;;;;;11.10;3.90;;;;;;;24.56;36.77;99211.16;4943041;28;20067;-68
2021/07/05 11:09:19;;;;;;;14.80;4.03;;;;;;;24.76;36.61;99204.19;4943297;29;20412;-68
2021/07/05 11:11:52;;;;;;;12.30;3.95;;;;;;;24.92;35.95;99203.13;4926567;29;20079;-68
2021/07/05 11:14:22;;;;;;;20.25;4.50;;;;;;;24.98;36.38;99197.97;4942641;29;20050;-68
2021/07/05 11:16:54;;;;;;;14.35;4.28;;;;;;;24.69;36.56;99190.13;4925830;29;20059;-68
2021/07/05 11:19:43;;;;;;;16.42;4.35;;;;;;;24.76;36.35;99193.00;4943161;29;20527;-68
2021/07/05 11:22:20;;;;;;;10.38;3.60;;;;;;;25.06;35.09;99177.28;4943493;29;20435;-68
2021/07/05 11:24:55;;;;;;;15.48;4.15;;;;;;;25.15;35.00;99182.53;4942167;29;20500;-67
2021/07/05 11:27:48;;;;;;;11.77;4.10;;;;;;;25.37;35.39;99174.25;4942225;29;20767;-68
2021/07/05 11:30:33;;;;;;;11.30;3.88;;;;;;;24.56;37.00;99184.03;4925458;29;20134;-68
2021/07/05 11:33:20;;;;;;;12.68;4.18;;;;;;;24.11;37.85;99183.97;4942654;29;20554;-68
2021/07/05 11:35:49;;;;;;;10.23;4.18;;;;;;;24.33;37.73;99175.81;4939512;28;20394;-67